Time;durP1;ratioP1;P1;durP2;ratioP2;P2;SDS_P1;SDS_P2;PMS_P1;PMS_P2;Temp;Humidity;BMP_temperature;BMP_pressure;BME280_temperature;BME280_humidity;BME280_pressure;Samples;Min_cycle;Max_cycle;Signal;HPM_P1;HPM_P2
2022/04/16 00:01:49;;;;;;;1.85;1.40;;;14.40;71.30;;;;;;5031470;28;20048;-48
2022/04/16 00:04:52;;;;;;;3.55;1.55;;;14.30;71.20;;;;;;5030798;28;20408;-52
2022/04/16 00:08:09;;;;;;;4.80;1.52;;;14.10;71.20;;;;;;5030861;28;20052;-49
2022/04/16 00:11:14;;;;;;;5.18;1.58;;;14.10;71.60;;;;;;5030946;28;20049;-48
2022/04/16 00:14:19;;;;;;;4.80;2.10;;;14.10;71.50;;;;;;5031005;28;20045;-48
2022/04/16 00:17:23;;;;;;;4.22;1.65;;;14.10;71.70;;;;;;5030695;28;20416;-49
2022/04/16 00:20:27;;;;;;;3.42;1.60;;;14.10;72.30;;;;;;5031103;28;20044;-47
2022/04/16 00:23:31;;;;;;;2.80;1.67;;;14.00;72.70;;;;;;5030859;28;20060;-48
2022/04/16 00:26:40;;;;;;;3.67;1.42;;;14.00;73.00;;;;;;5030265;28;20036;-48
2022/04/16 00:29:46;;;;;;;5.40;2.65;;;13.90;73.60;;;;;;5030563;28;20036;-48
2022/04/16 00:32:54;;;;;;;4.35;2.10;;;13.80;74.20;;;;;;5030707;28;20041;-48
2022/04/16 00:35:58;;;;;;;4.97;1.67;;;13.70;74.00;;;;;;5030581;28;20040;-47
2022/04/16 00:39:02;;;;;;;3.65;1.55;;;13.50;74.20;;;;;;5030605;28;20060;-47
2022/04/16 00:42:06;;;;;;;4.38;1.63;;;13.50;73.10;;;;;;5030737;28;20512;-48
2022/04/16 00:45:12;;;;;;;2.50;1.48;;;13.50;73.60;;;;;;5030325;28;20044;-47
2022/04/16 00:48:16;;;;;;;5.35;1.52;;;13.40;74.40;;;;;;5030192;28;20397;-47
2022/04/16 00:51:20;;;;;;;4.07;1.70;;;13.40;75.00;;;;;;5030707;28;20053;-49
2022/04/16 00:54:24;;;;;;;5.38;1.75;;;13.30;74.60;;;;;;5030680;28;20036;-48
2022/04/16 00:57:28;;;;;;;8.13;1.80;;;13.30;75.40;;;;;;5029998;28;20036;-48
2022/04/16 01:00:32;;;;;;;4.00;1.83;;;13.10;75.60;;;;;;5030283;28;20060;-49
2022/04/16 01:03:36;;;;;;;3.10;1.90;;;13.00;75.50;;;;;;5030078;28;20036;-48
2022/04/16 01:06:48;;;;;;;3.67;1.48;;;12.90;74.40;;;;;;5029147;28;20036;-48
2022/04/16 01:09:52;;;;;;;5.07;1.67;;;12.90;74.50;;;;;;5030210;28;20048;-48
2022/04/16 01:12:58;;;;;;;4.43;1.92;;;12.90;74.50;;;;;;5029932;28;20064;-47
2022/04/16 01:16:06;;;;;;;3.92;1.60;;;12.80;75.90;;;;;;5030023;28;20044;-47
2022/04/16 01:19:10;;;;;;;1.85;1.30;;;12.70;76.20;;;;;;5029923;28;20052;-48
2022/04/16 01:22:15;;;;;;;3.00;1.67;;;12.50;75.00;;;;;;5029887;28;20048;-47
2022/04/16 01:25:19;;;;;;;5.95;1.80;;;12.60;75.40;;;;;;5030083;28;20052;-54
2022/04/16 01:28:24;;;;;;;5.53;1.83;;;12.60;75.80;;;;;;5029411;28;20052;-54
2022/04/16 01:31:30;;;;;;;6.00;2.20;;;12.60;77.00;;;;;;5030028;28;20032;-53
2022/04/16 01:34:34;;;;;;;7.20;1.98;;;12.50;78.50;;;;;;5029417;28;20404;-54
2022/04/16 01:37:38;;;;;;;5.15;1.83;;;12.40;79.40;;;;;;5029284;28;20040;-48
2022/04/16 01:40:41;;;;;;;5.55;2.25;;;12.40;79.90;;;;;;5029742;28;20536;-47
2022/04/16 01:43:45;;;;;;;4.35;2.22;;;12.30;79.60;;;;;;5029663;28;20040;-49
2022/04/16 01:46:49;;;;;;;5.97;2.08;;;12.30;79.30;;;;;;5029345;28;20421;-54
2022/04/16 01:49:55;;;;;;;6.20;1.95;;;12.40;80.10;;;;;;5029503;28;20428;-52
2022/04/16 01:52:59;;;;;;;3.53;1.90;;;12.30;79.60;;;;;;5029529;28;20045;-47
2022/04/16 01:56:03;;;;;;;5.47;2.15;;;12.30;78.80;;;;;;5029415;28;20049;-48
2022/04/16 01:59:11;;;;;;;6.32;2.58;;;12.30;79.00;;;;;;5029390;28;20044;-49
2022/04/16 02:02:16;;;;;;;4.65;2.13;;;12.40;79.10;;;;;;5029633;28;20045;-47
2022/04/16 02:05:22;;;;;;;5.53;1.85;;;12.40;79.00;;;;;;5029454;28;20048;-51
2022/04/16 02:08:26;;;;;;;3.10;1.88;;;12.50;78.60;;;;;;5029279;28;20041;-47
2022/04/16 02:11:30;;;;;;;6.00;2.10;;;12.50;78.90;;;;;;5053723;22;20468;-61
2022/04/16 02:14:35;;;;;;;4.53;2.40;;;12.50;79.50;;;;;;5030270;28;20415;-59
2022/04/16 02:17:39;;;;;;;3.92;2.45;;;12.40;80.90;;;;;;5029526;28;20044;-61
2022/04/16 02:20:44;;;;;;;5.45;2.83;;;12.20;82.40;;;;;;5029777;28;20045;-60
2022/04/16 02:23:51;;;;;;;5.57;2.47;;;12.00;84.00;;;;;;5029357;28;20403;-61
2022/04/16 02:26:55;;;;;;;6.07;2.95;;;11.90;85.20;;;;;;5029354;28;20044;-60
2022/04/16 02:29:59;;;;;;;7.60;3.30;;;11.90;86.40;;;;;;5031608;28;20052;-60
2022/04/16 02:33:06;;;;;;;8.88;3.35;;;11.80;87.40;;;;;;5033445;28;20060;-59
2022/04/16 02:36:11;;;;;;;4.55;2.63;;;11.80;88.00;;;;;;5032663;28;20048;-58
2022/04/16 02:39:16;;;;;;;6.13;3.70;;;11.70;88.80;;;;;;5033202;28;20424;-60
2022/04/16 02:42:21;;;;;;;5.57;2.78;;;11.80;89.00;;;;;;5032543;28;20052;-60
2022/04/16 02:48:48;;;;;;;;;;;11.90;88.80;;;;;;5032702;28;20040;-57
2022/04/16 02:51:52;;;;;;;7.28;3.15;;;12.00;88.50;;;;;;5032882;28;19916;-57
2022/04/16 02:54:56;;;;;;;7.88;3.30;;;11.90;89.40;;;;;;5032511;28;20044;-60
2022/04/16 02:58:00;;;;;;;8.13;2.67;;;11.80;89.40;;;;;;5031478;28;20040;-60
2022/04/16 03:01:04;;;;;;;5.00;2.72;;;11.80;89.80;;;;;;5032521;28;20045;-60
2022/04/16 03:04:08;;;;;;;4.05;2.70;;;11.80;90.10;;;;;;5032388;28;20036;-60
2022/04/16 03:07:12;;;;;;;5.35;2.75;;;11.70;90.30;;;;;;5032075;28;20045;-60
2022/04/16 03:10:16;;;;;;;6.43;3.25;;;11.60;90.60;;;;;;5032283;28;20053;-59
2022/04/16 03:13:21;;;;;;;7.38;3.35;;;11.60;91.00;;;;;;5032196;28;20408;-60
2022/04/16 03:19:47;;;;;;;5.85;2.70;;;11.60;91.00;;;;;;5031958;28;20032;-60
2022/04/16 03:22:51;;;;;;;7.47;2.88;;;11.60;90.80;;;;;;5032085;28;20503;-59
2022/04/16 03:25:58;;;;;;;8.35;2.67;;;11.60;90.60;;;;;;5032421;28;20048;-60
2022/04/16 03:29:02;;;;;;;6.25;2.40;;;11.60;90.30;;;;;;5030829;28;20408;-59
2022/04/16 03:32:07;;;;;;;6.55;2.70;;;11.60;90.30;;;;;;5032024;28;20527;-60
2022/04/16 03:35:11;;;;;;;4.28;2.70;;;11.50;91.40;;;;;;5031948;28;20044;-59
2022/04/16 03:38:15;;;;;;;6.97;2.63;;;11.40;91.90;;;;;;5031930;28;20428;-61
2022/04/16 03:41:19;;;;;;;4.30;2.50;;;11.30;91.50;;;;;;5030694;28;20045;-59
2022/04/16 03:44:23;;;;;;;5.75;2.55;;;11.40;91.30;;;;;;5031613;28;20041;-60
2022/04/16 03:47:27;;;;;;;11.57;3.60;;;11.40;91.30;;;;;;5031101;28;20052;-60
2022/04/16 03:50:32;;;;;;;4.38;3.15;;;11.40;91.40;;;;;;5031550;28;20211;-60
2022/04/16 03:53:36;;;;;;;5.60;3.00;;;11.30;91.40;;;;;;5031302;28;20052;-58
2022/04/16 04:00:05;;;;;;;10.02;6.78;;;11.30;91.80;;;;;;5031398;28;20044;-58
2022/04/16 04:03:16;;;;;;;6.22;3.50;;;11.40;90.60;;;;;;5031277;28;20049;-59
2022/04/16 04:06:20;;;;;;;34.38;21.83;;;11.60;88.00;;;;;;5030931;28;20049;-59
2022/04/16 04:09:24;;;;;;;40.63;22.08;;;11.70;90.00;;;;;;5031072;28;20045;-58
2022/04/16 04:12:27;;;;;;;53.33;29.35;;;11.70;90.20;;;;;;5031169;28;20053;-60
2022/04/16 04:15:31;;;;;;;28.17;16.15;;;11.60;89.00;;;;;;5031338;28;20044;-60
2022/04/16 04:18:35;;;;;;;6.70;4.75;;;11.60;90.00;;;;;;5031020;28;20044;-60
2022/04/16 04:21:41;;;;;;;7.45;4.10;;;11.60;88.40;;;;;;5031440;28;20424;-60
2022/04/16 04:24:45;;;;;;;6.47;3.00;;;11.60;87.30;;;;;;5031321;28;20044;-61
2022/04/16 04:27:50;;;;;;;10.02;4.45;;;11.50;88.20;;;;;;5031061;28;20043;-60
2022/04/16 04:30:54;;;;;;;5.20;2.95;;;11.60;87.00;;;;;;5030695;28;20044;-60
2022/04/16 04:33:58;;;;;;;12.00;3.83;;;11.60;86.90;;;;;;5031245;28;20052;-60
2022/04/16 04:37:02;;;;;;;24.58;12.98;;;11.60;86.60;;;;;;5030917;28;20048;-58
2022/04/16 04:40:07;;;;;;;32.25;15.70;;;11.60;86.40;;;;;;5030830;28;20048;-60
2022/04/16 04:43:11;;;;;;;43.90;18.15;;;11.60;86.60;;;;;;5030107;28;20052;-60
2022/04/16 04:46:15;;;;;;;102.75;34.92;;;11.50;86.30;;;;;;5030687;28;20117;-59
2022/04/16 04:49:19;;;;;;;65.30;22.42;;;11.60;85.40;;;;;;5030932;28;20404;-59
2022/04/16 04:52:29;;;;;;;17.60;6.45;;;11.60;85.10;;;;;;5028999;28;20048;-59
2022/04/16 04:55:33;;;;;;;18.75;7.53;;;11.70;83.20;;;;;;5030824;28;20050;-60
2022/04/16 04:58:37;;;;;;;13.40;5.10;;;11.80;82.60;;;;;;5030642;28;20040;-59
2022/04/16 05:01:41;;;;;;;9.95;3.20;;;11.80;83.40;;;;;;5030113;28;20045;-59
2022/04/16 05:04:46;;;;;;;4.55;1.80;;;11.90;82.10;;;;;;5030566;28;20056;-58
2022/04/16 05:07:50;;;;;;;3.38;2.00;;;11.90;83.60;;;;;;5030273;28;20396;-60
2022/04/16 05:10:54;;;;;;;4.60;2.17;;;11.90;82.50;;;;;;5030247;28;20040;-61
2022/04/16 05:13:57;;;;;;;3.25;2.25;;;12.00;81.80;;;;;;5029517;28;20056;-60
2022/04/16 05:17:02;;;;;;;4.15;1.80;;;12.00;83.00;;;;;;5029995;28;20077;-57
2022/04/16 05:20:08;;;;;;;4.95;1.85;;;12.20;80.10;;;;;;5030113;28;20136;-59
2022/04/16 05:23:12;;;;;;;5.35;2.10;;;12.60;78.20;;;;;;5030021;28;20037;-56
2022/04/16 05:26:16;;;;;;;4.18;1.77;;;14.80;78.20;;;;;;5029608;28;20057;-59
2022/04/16 05:29:20;;;;;;;2.35;1.50;;;17.20;72.90;;;;;;5029982;28;20412;-60
2022/04/16 05:32:31;;;;;;;6.03;2.13;;;19.20;68.60;;;;;;5029710;28;20044;-60
2022/04/16 05:35:35;;;;;;;9.20;2.20;;;20.60;67.20;;;;;;5029311;28;20052;-58
2022/04/16 05:38:39;;;;;;;10.30;2.47;;;21.70;65.50;;;;;;5029827;28;20275;-59
2022/04/16 05:41:44;;;;;;;5.03;2.20;;;23.30;63.40;;;;;;5029539;28;20053;-60
2022/04/16 05:44:48;;;;;;;2.75;1.42;;;24.40;62.00;;;;;;5028956;28;20427;-59
2022/04/16 05:47:51;;;;;;;4.97;1.88;;;23.60;59.40;;;;;;5029208;28;20048;-60
2022/04/16 05:50:59;;;;;;;7.55;1.90;;;24.80;60.10;;;;;;5029560;28;20040;-60
2022/04/16 05:54:03;;;;;;;3.90;1.70;;;26.00;60.30;;;;;;5029795;28;20510;-60
2022/04/16 05:57:08;;;;;;;4.07;1.77;;;26.30;60.60;;;;;;5029777;28;20306;-60
2022/04/16 06:00:13;;;;;;;8.98;3.70;;;26.50;60.80;;;;;;5029625;28;20411;-61
2022/04/16 06:03:20;;;;;;;5.75;2.80;;;26.60;60.00;;;;;;5030912;28;20056;-59
2022/04/16 06:06:24;;;;;;;8.10;2.45;;;26.90;60.40;;;;;;5033380;28;20052;-58
2022/04/16 06:09:28;;;;;;;14.75;3.30;;;27.10;58.60;;;;;;5033519;28;20112;-57
2022/04/16 06:12:32;;;;;;;3.95;2.25;;;26.90;58.60;;;;;;5033024;28;20064;-61
2022/04/16 06:15:38;;;;;;;10.35;2.63;;;27.80;57.50;;;;;;5033440;28;20108;-60
2022/04/16 06:18:42;;;;;;;4.82;2.25;;;28.10;56.50;;;;;;5033417;28;20048;-61
2022/04/16 06:21:46;;;;;;;5.93;2.13;;;28.70;56.00;;;;;;5033052;28;20048;-59
2022/04/16 06:24:50;;;;;;;6.07;2.30;;;29.10;55.70;;;;;;5033318;28;20052;-60
2022/04/16 06:27:54;;;;;;;10.88;2.30;;;28.80;55.60;;;;;;5032625;28;20036;-60
2022/04/16 06:30:58;;;;;;;5.60;1.90;;;28.30;56.40;;;;;;5032839;28;20041;-61
2022/04/16 06:34:02;;;;;;;9.27;2.53;;;28.60;56.50;;;;;;5033120;28;20053;-59
2022/04/16 06:37:06;;;;;;;6.70;2.13;;;29.20;56.40;;;;;;5032581;28;20040;-60
2022/04/16 06:40:11;;;;;;;6.95;2.08;;;29.60;56.20;;;;;;5033061;28;20048;-59
2022/04/16 06:43:15;;;;;;;5.50;2.28;;;30.20;56.00;;;;;;5032438;28;20048;-56
2022/04/16 06:46:20;;;;;;;6.35;2.90;;;24.60;59.40;;;;;;5031451;28;20048;-59
2022/04/16 06:49:25;;;;;;;7.38;2.97;;;24.60;60.10;;;;;;5031936;28;20045;-59
2022/04/16 06:52:29;;;;;;;4.88;3.15;;;25.90;58.60;;;;;;5031993;28;20044;-60
2022/04/16 06:55:34;;;;;;;5.80;3.05;;;25.90;59.50;;;;;;5032850;28;20101;-55
2022/04/16 06:58:37;;;;;;;5.18;2.90;;;24.90;58.30;;;;;;5032661;28;20040;-58
2022/04/16 07:01:42;;;;;;;9.82;3.10;;;25.40;59.30;;;;;;5032479;28;20040;-58
2022/04/16 07:04:46;;;;;;;5.00;2.60;;;25.30;60.00;;;;;;5032535;28;20040;-57
2022/04/16 07:07:49;;;;;;;5.60;2.53;;;26.90;58.50;;;;;;5032089;28;20066;-58
2022/04/16 07:10:53;;;;;;;5.00;2.70;;;27.30;57.90;;;;;;5032525;28;20044;-60
2022/04/16 07:13:57;;;;;;;4.57;2.72;;;28.90;57.20;;;;;;5032373;28;20048;-60
2022/04/16 07:17:01;;;;;;;6.90;2.22;;;29.50;56.00;;;;;;5032281;28;20400;-60
2022/04/16 07:20:06;;;;;;;5.32;2.13;;;30.50;55.40;;;;;;5032625;28;20056;-59
2022/04/16 07:23:10;;;;;;;4.70;2.40;;;29.30;53.50;;;;;;5032059;28;20044;-58
2022/04/16 07:26:14;;;;;;;6.57;2.25;;;30.70;54.50;;;;;;5032087;28;20236;-60
2022/04/16 07:29:18;;;;;;;5.03;2.25;;;31.90;52.90;;;;;;5032144;28;20400;-58
2022/04/16 07:32:22;;;;;;;4.03;2.33;;;28.60;54.30;;;;;;5031495;28;20401;-59
2022/04/16 07:35:26;;;;;;;6.65;2.17;;;25.90;55.80;;;;;;5032084;28;20067;-59
2022/04/16 07:38:30;;;;;;;4.53;2.78;;;27.80;55.10;;;;;;5031991;28;20048;-58
2022/04/16 07:41:34;;;;;;;5.47;2.42;;;27.20;54.10;;;;;;5031801;28;20045;-61
2022/04/16 07:44:39;;;;;;;8.88;2.85;;;29.90;54.20;;;;;;5031430;28;20052;-60
2022/04/16 07:47:44;;;;;;;6.70;2.47;;;30.90;52.10;;;;;;5031436;28;20042;-60
2022/04/16 07:50:48;;;;;;;3.65;2.42;;;29.60;53.00;;;;;;5031636;28;20236;-58
2022/04/16 07:53:53;;;;;;;4.55;2.60;;;29.00;53.90;;;;;;5031561;28;20048;-59
2022/04/16 07:56:57;;;;;;;4.05;2.85;;;28.00;54.20;;;;;;5031090;28;20048;-58
2022/04/16 08:00:01;;;;;;;5.18;3.33;;;29.90;53.60;;;;;;5031571;28;20404;-59
2022/04/16 08:03:06;;;;;;;4.75;2.97;;;31.10;52.40;;;;;;5031185;28;20052;-61
2022/04/16 08:06:09;;;;;;;5.35;3.03;;;27.70;52.60;;;;;;5031137;28;20060;-60
2022/04/16 08:09:14;;;;;;;5.45;3.40;;;28.80;53.10;;;;;;5031374;28;20033;-59
2022/04/16 08:12:19;;;;;;;6.18;4.05;;;29.70;52.30;;;;;;5030877;28;20048;-58
2022/04/16 08:15:23;;;;;;;8.70;4.15;;;28.00;55.30;;;;;;5045100;22;20520;-63
2022/04/16 08:18:27;;;;;;;7.40;3.97;;;26.30;57.20;;;;;;5031368;28;20052;-63
2022/04/16 08:21:31;;;;;;;10.70;4.18;;;28.00;55.60;;;;;;5031019;28;20064;-63
2022/04/16 08:27:43;;;;;;;8.80;6.05;;;27.40;55.90;;;;;;5030627;28;20040;-64
2022/04/16 08:30:46;;;;;;;7.82;5.65;;;27.10;55.40;;;;;;5031213;28;20060;-64
2022/04/16 08:33:51;;;;;;;11.27;6.38;;;30.50;55.30;;;;;;5031196;28;20048;-63
2022/04/16 08:36:55;;;;;;;10.30;5.82;;;28.10;54.30;;;;;;5031228;28;20056;-65
2022/04/16 08:40:00;;;;;;;11.68;6.30;;;29.90;55.50;;;;;;5031095;28;20490;-63
2022/04/16 08:43:05;;;;;;;10.00;5.85;;;31.50;54.50;;;;;;5030762;28;20408;-62
2022/04/16 08:46:09;;;;;;;9.38;5.50;;;31.40;56.00;;;;;;5030750;28;20072;-62
2022/04/16 08:49:15;;;;;;;10.30;4.82;;;31.50;53.60;;;;;;5030592;28;20048;-64
2022/04/16 08:52:23;;;;;;;7.95;4.30;;;31.90;54.60;;;;;;5041749;28;20040;-63
2022/04/16 08:55:28;;;;;;;7.88;3.90;;;34.50;53.00;;;;;;5019338;28;20033;-62
2022/04/16 08:58:32;;;;;;;6.70;3.65;;;35.80;51.60;;;;;;5031288;28;20064;-65
2022/04/16 09:01:36;;;;;;;7.57;4.03;;;37.10;50.10;;;;;;5030255;28;20036;-64
2022/04/16 09:04:40;;;;;;;7.07;3.70;;;36.40;49.70;;;;;;5029650;28;20100;-64
2022/04/16 09:07:50;;;;;;;6.07;3.90;;;33.60;51.70;;;;;;5029887;28;20041;-64
2022/04/16 09:11:07;;;;;;;6.85;4.60;;;33.20;50.70;;;;;;5030844;28;20044;-64
2022/04/16 09:14:11;;;;;;;7.78;4.95;;;31.40;52.70;;;;;;5029084;28;20404;-64
2022/04/16 09:17:16;;;;;;;6.45;3.80;;;29.70;55.30;;;;;;5028527;28;20500;-64
2022/04/16 09:20:20;;;;;;;8.10;3.10;;;33.30;52.70;;;;;;5027268;28;20044;-64
2022/04/16 09:23:25;;;;;;;7.38;2.72;;;33.30;50.70;;;;;;5030172;28;20056;-64
2022/04/16 09:26:34;;;;;;;9.25;2.55;;;36.10;50.60;;;;;;5014374;28;20053;-64
2022/04/16 09:29:40;;;;;;;4.10;2.25;;;38.10;49.80;;;;;;5030469;28;20048;-64
2022/04/16 09:32:45;;;;;;;8.88;3.10;;;38.50;47.90;;;;;;5027329;28;20045;-64
2022/04/16 09:35:55;;;;;;;10.10;4.30;;;34.70;47.00;;;;;;5028770;28;20052;-64
2022/04/16 09:39:05;;;;;;;5.80;2.92;;;31.40;51.30;;;;;;5029225;28;20044;-64
2022/04/16 09:42:09;;;;;;;8.90;2.50;;;31.60;52.10;;;;;;5027710;28;20495;-64
2022/04/16 09:45:14;;;;;;;6.18;2.30;;;34.50;51.00;;;;;;5028009;28;20390;-64
2022/04/16 09:48:19;;;;;;;2.45;1.80;;;32.80;50.20;;;;;;5027828;28;20033;-64
2022/04/16 09:51:24;;;;;;;6.30;2.20;;;33.30;51.40;;;;;;5016513;28;20044;-63
2022/04/16 09:54:31;;;;;;;4.45;2.53;;;33.00;49.20;;;;;;5022263;28;20041;-64
2022/04/16 09:57:40;;;;;;;3.47;2.20;;;37.10;49.60;;;;;;5025951;28;20044;-65
2022/04/16 10:00:44;;;;;;;4.55;1.65;;;40.10;48.10;;;;;;5010983;28;20040;-66
2022/04/16 10:03:51;;;;;;;5.18;1.95;;;38.80;46.20;;;;;;5009903;28;20052;-64
2022/04/16 10:06:55;;;;;;;2.75;1.90;;;36.90;47.00;;;;;;5010010;28;20049;-64
2022/04/16 10:10:03;;;;;;;3.88;1.90;;;35.20;47.50;;;;;;5010203;28;20503;-63
2022/04/16 10:13:10;;;;;;;6.07;1.95;;;38.70;47.60;;;;;;5011519;28;20052;-63
2022/04/16 10:16:20;;;;;;;13.60;1.98;;;37.40;46.10;;;;;;5027955;28;20037;-65
2022/04/16 10:19:24;;;;;;;5.07;1.90;;;39.50;47.80;;;;;;5022419;28;20381;-63
2022/04/16 10:22:28;;;;;;;7.00;2.03;;;41.10;46.70;;;;;;5024649;28;20036;-66
2022/04/16 10:25:44;;;;;;;6.03;1.92;;;41.40;46.50;;;;;;5024749;28;20052;-66
2022/04/16 10:28:52;;;;;;;2.55;1.40;;;38.60;47.00;;;;;;5029768;28;20045;-66
2022/04/16 10:31:56;;;;;;;3.78;1.60;;;40.70;46.40;;;;;;5024845;28;20036;-66
2022/04/16 10:35:04;;;;;;;4.00;1.73;;;41.30;45.80;;;;;;5026859;28;20052;-66
2022/04/16 10:38:08;;;;;;;7.22;2.10;;;40.90;46.00;;;;;;5022556;28;20045;-66
2022/04/16 10:41:17;;;;;;;5.53;1.58;;;37.70;47.90;;;;;;5028274;28;20036;-65
2022/04/16 10:44:21;;;;;;;4.68;1.17;;;36.60;46.40;;;;;;5021687;28;20036;-65
2022/04/16 10:47:25;;;;;;;9.75;1.70;;;33.90;47.90;;;;;;5028468;28;20056;-72
2022/04/16 10:50:32;;;;;;;2.92;1.50;;;34.30;48.50;;;;;;5018493;28;20040;-73
2022/04/16 10:53:38;;;;;;;5.13;1.52;;;35.00;47.20;;;;;;5029296;28;20037;-71
2022/04/16 10:56:52;;;;;;;3.28;1.40;;;35.70;47.20;;;;;;5029020;28;20055;-71
2022/04/16 10:59:57;;;;;;;5.70;1.60;;;36.80;47.30;;;;;;5030141;28;20068;-71
2022/04/16 11:03:30;;;;;;;3.22;1.10;;;37.60;46.90;;;;;;5031824;28;20045;-73
2022/04/16 11:06:35;;;;;;;4.10;1.58;;;36.50;46.10;;;;;;5021317;28;20535;-73
2022/04/16 11:09:40;;;;;;;5.05;1.83;;;38.00;46.40;;;;;;5029102;28;20036;-73
2022/04/16 11:12:47;;;;;;;7.32;1.70;;;37.50;46.80;;;;;;5029628;28;20037;-73
2022/04/16 11:15:52;;;;;;;3.85;1.40;;;35.90;47.80;;;;;;5031517;28;20036;-72
2022/04/16 11:18:57;;;;;;;4.60;1.90;;;35.60;47.40;;;;;;5031511;28;20040;-73
2022/04/16 11:22:01;;;;;;;6.00;1.60;;;36.40;45.60;;;;;;5031415;28;20044;-71
2022/04/16 11:25:06;;;;;;;5.18;1.85;;;36.20;46.40;;;;;;5031209;28;20040;-71
2022/04/16 11:34:58;;;;;;;5.90;1.58;;;35.80;46.50;;;;;;5029232;28;20174;-71
2022/04/16 11:38:02;;;;;;;7.65;1.70;;;36.30;46.20;;;;;;5029467;28;20049;-72
2022/04/16 11:41:11;;;;;;;6.07;1.52;;;35.50;47.40;;;;;;5033259;28;20166;-71
2022/04/16 11:44:15;;;;;;;7.68;1.70;;;35.30;47.50;;;;;;5033055;28;20040;-71
2022/04/16 11:47:24;;;;;;;3.75;1.48;;;35.50;47.10;;;;;;5031725;28;20048;-71
2022/04/16 11:50:28;;;;;;;6.18;1.63;;;34.60;48.10;;;;;;5027669;28;20060;-71
2022/04/16 11:53:43;;;;;;;5.18;1.60;;;36.00;48.00;;;;;;5031512;28;20045;-71
2022/04/16 11:56:50;;;;;;;7.15;1.63;;;35.80;47.30;;;;;;5031074;28;20052;-63
2022/04/16 12:00:05;;;;;;;2.58;1.50;;;35.00;46.70;;;;;;5030045;28;20032;-63
2022/04/16 12:03:11;;;;;;;7.32;1.98;;;34.50;47.50;;;;;;5030103;28;20033;-64
2022/04/16 12:06:16;;;;;;;4.68;1.70;;;35.20;46.90;;;;;;5025670;28;20037;-65
2022/04/16 12:09:22;;;;;;;2.35;1.40;;;34.40;47.10;;;;;;5028258;28;20049;-65
2022/04/16 12:12:25;;;;;;;2.05;1.27;;;33.80;48.50;;;;;;5027852;28;20040;-66
2022/04/16 12:15:30;;;;;;;9.52;1.52;;;33.50;48.70;;;;;;5025980;28;21821;-63
2022/04/16 12:18:40;;;;;;;12.85;1.75;;;32.70;50.00;;;;;;5032233;28;20056;-63
2022/04/16 12:21:44;;;;;;;2.55;1.25;;;31.70;49.80;;;;;;5023751;28;20508;-62
2022/04/16 12:24:49;;;;;;;6.28;1.92;;;33.10;48.70;;;;;;5025905;28;20041;-64
2022/04/16 12:27:56;;;;;;;2.30;1.60;;;32.90;50.00;;;;;;5016824;28;20371;-64
2022/04/16 12:31:00;;;;;;;8.85;2.30;;;31.50;49.90;;;;;;5029459;28;20063;-65
2022/04/16 12:34:04;;;;;;;7.68;2.00;;;30.60;50.60;;;;;;5028327;28;20040;-64
2022/04/16 12:37:08;;;;;;;3.95;1.73;;;30.80;50.70;;;;;;5025316;28;20104;-64
2022/04/16 12:40:13;;;;;;;4.43;1.75;;;31.20;51.40;;;;;;5027381;28;20044;-64
2022/04/16 12:43:17;;;;;;;5.03;1.70;;;32.20;50.40;;;;;;5027195;28;20041;-64
2022/04/16 12:46:21;;;;;;;5.55;1.77;;;33.10;49.60;;;;;;5027117;28;20044;-64
2022/04/16 12:49:25;;;;;;;2.78;1.58;;;32.90;50.00;;;;;;5031205;28;20056;-64
2022/04/16 12:52:29;;;;;;;6.53;1.70;;;32.50;50.90;;;;;;5027179;28;20048;-64
2022/04/16 12:55:33;;;;;;;8.68;1.67;;;32.30;50.90;;;;;;5026556;28;20053;-64
2022/04/16 12:58:37;;;;;;;4.07;1.67;;;31.70;51.00;;;;;;5027614;28;20053;-64
2022/04/16 13:01:41;;;;;;;8.43;2.15;;;31.40;52.10;;;;;;5026636;28;20053;-65
2022/04/16 13:04:45;;;;;;;10.35;2.40;;;31.70;52.10;;;;;;5025743;28;20044;-64
2022/04/16 13:07:49;;;;;;;4.30;1.40;;;31.80;51.40;;;;;;5027664;28;20048;-64
2022/04/16 13:10:53;;;;;;;8.50;1.85;;;31.10;50.90;;;;;;5029712;28;20488;-66
2022/04/16 13:13:57;;;;;;;10.45;1.80;;;29.80;53.10;;;;;;5026185;28;20053;-65
2022/04/16 13:17:03;;;;;;;6.80;2.10;;;28.80;53.80;;;;;;5024265;28;20060;-65
2022/04/16 13:20:09;;;;;;;22.00;2.90;;;29.00;54.90;;;;;;5030270;28;20048;-66
2022/04/16 13:23:14;;;;;;;3.92;1.50;;;29.30;53.70;;;;;;5025517;28;20070;-65
2022/04/16 13:26:19;;;;;;;7.57;2.08;;;28.20;54.00;;;;;;5025608;28;20571;-67
2022/04/16 13:29:23;;;;;;;6.43;1.75;;;27.30;54.10;;;;;;5023457;28;20538;-64
2022/04/16 13:32:27;;;;;;;10.43;2.00;;;27.20;54.90;;;;;;5024089;28;20065;-64
2022/04/16 13:35:33;;;;;;;11.60;2.42;;;26.80;55.10;;;;;;5024441;28;20404;-65
2022/04/16 13:38:38;;;;;;;16.88;2.50;;;27.00;55.80;;;;;;5029588;28;20040;-64
2022/04/16 13:41:42;;;;;;;5.75;2.33;;;27.00;54.60;;;;;;5023792;28;20044;-64
2022/04/16 13:44:46;;;;;;;11.60;2.40;;;27.00;55.70;;;;;;5027719;28;20052;-65
2022/04/16 13:47:50;;;;;;;11.05;2.30;;;26.60;55.50;;;;;;5027291;28;20049;-71
2022/04/16 13:50:55;;;;;;;14.48;2.45;;;25.50;56.60;;;;;;5031567;28;20408;-71
2022/04/16 13:54:00;;;;;;;3.80;1.60;;;25.60;56.50;;;;;;5031217;28;20057;-72
2022/04/16 13:57:04;;;;;;;15.80;2.65;;;25.00;57.10;;;;;;5030597;28;20053;-70
2022/04/16 14:00:09;;;;;;;25.38;3.75;;;25.20;58.10;;;;;;5030476;28;20041;-70
2022/04/16 14:03:16;;;;;;;15.02;2.90;;;25.50;58.30;;;;;;5027890;28;20587;-71
2022/04/16 14:06:20;;;;;;;17.77;2.10;;;25.70;57.10;;;;;;5021507;28;20048;-72
2022/04/16 14:09:25;;;;;;;7.15;2.00;;;26.00;56.60;;;;;;5023810;28;20101;-72
2022/04/16 14:12:30;;;;;;;5.72;1.88;;;25.30;57.60;;;;;;5025472;28;20112;-71
2022/04/16 14:15:34;;;;;;;25.00;5.85;;;25.30;57.40;;;;;;5026138;28;20044;-64
2022/04/16 14:18:38;;;;;;;6.43;1.95;;;25.80;57.30;;;;;;5022340;28;20045;-63
2022/04/16 14:21:42;;;;;;;6.28;1.67;;;25.50;55.90;;;;;;5028808;28;20037;-66
2022/04/16 14:24:46;;;;;;;13.52;1.77;;;25.40;55.60;;;;;;5021466;28;20151;-64
2022/04/16 14:27:50;;;;;;;5.85;1.52;;;25.30;56.30;;;;;;5028975;28;20496;-64
2022/04/16 14:30:55;;;;;;;6.20;2.00;;;24.90;56.70;;;;;;5027776;28;20049;-64
2022/04/16 14:33:59;;;;;;;8.63;1.83;;;24.60;56.00;;;;;;5027984;28;20052;-65
2022/04/16 14:37:03;;;;;;;9.50;2.58;;;24.50;57.20;;;;;;5029906;28;20065;-63
2022/04/16 14:40:08;;;;;;;5.93;1.90;;;24.50;57.20;;;;;;5031055;28;20388;-64
2022/04/16 14:43:13;;;;;;;5.82;1.65;;;24.20;56.90;;;;;;5032964;28;20036;-64
2022/04/16 14:46:18;;;;;;;5.88;1.75;;;23.80;57.50;;;;;;5023765;28;20040;-64
2022/04/16 14:49:22;;;;;;;6.53;2.13;;;23.80;57.70;;;;;;5032064;28;20400;-64
2022/04/16 14:52:26;;;;;;;10.65;2.05;;;23.40;57.90;;;;;;5027188;28;20040;-65
2022/04/16 14:55:30;;;;;;;10.73;1.73;;;23.30;58.80;;;;;;5032313;28;20049;-64
2022/04/16 14:58:36;;;;;;;5.57;1.73;;;23.20;58.90;;;;;;5030088;28;20041;-64
2022/04/16 15:01:40;;;;;;;11.15;2.20;;;23.00;59.40;;;;;;5032539;28;20487;-64
2022/04/16 15:04:44;;;;;;;6.97;1.77;;;22.90;60.00;;;;;;5027830;28;20048;-64
2022/04/16 15:07:49;;;;;;;5.03;1.80;;;22.80;60.60;;;;;;5028273;28;20345;-64
2022/04/16 15:10:53;;;;;;;4.90;1.90;;;22.70;61.00;;;;;;5025268;28;20040;-64
2022/04/16 15:13:57;;;;;;;6.05;1.80;;;22.70;60.40;;;;;;5028104;28;20041;-64
2022/04/16 15:17:01;;;;;;;6.82;2.30;;;22.20;61.10;;;;;;5030932;28;20049;-64
2022/04/16 15:20:06;;;;;;;4.07;2.15;;;22.10;61.10;;;;;;5029789;28;20045;-63
2022/04/16 15:23:10;;;;;;;3.83;1.80;;;22.20;60.60;;;;;;5027118;28;20040;-64
2022/04/16 15:26:15;;;;;;;6.15;1.75;;;22.20;60.90;;;;;;5024459;28;20036;-65
2022/04/16 15:29:19;;;;;;;3.50;1.95;;;22.00;61.30;;;;;;5025240;28;20044;-65
2022/04/16 15:32:23;;;;;;;5.03;1.65;;;21.70;61.60;;;;;;5028861;28;20036;-66
2022/04/16 15:35:29;;;;;;;9.40;2.03;;;21.50;61.70;;;;;;5025597;28;20044;-66
2022/04/16 15:38:34;;;;;;;4.03;1.70;;;21.40;61.70;;;;;;5028194;28;20081;-66
2022/04/16 15:41:38;;;;;;;7.05;1.70;;;21.40;62.70;;;;;;5028950;28;20052;-65
2022/04/16 15:44:42;;;;;;;9.52;2.55;;;21.40;61.90;;;;;;5026944;28;20392;-65
2022/04/16 15:47:46;;;;;;;4.80;1.42;;;21.40;61.80;;;;;;5023428;28;20056;-65
2022/04/16 15:50:50;;;;;;;4.53;1.80;;;21.40;62.90;;;;;;5026602;28;20514;-65
2022/04/16 15:53:55;;;;;;;3.10;1.50;;;21.20;63.10;;;;;;5029744;28;20040;-66
2022/04/16 15:57:00;;;;;;;5.93;1.92;;;20.80;62.80;;;;;;5028986;28;20040;-68
2022/04/16 16:00:06;;;;;;;5.38;1.80;;;20.80;63.20;;;;;;5030924;28;20040;-65
2022/04/16 16:03:10;;;;;;;10.50;1.60;;;20.80;62.10;;;;;;5029604;28;20069;-66
2022/04/16 16:06:14;;;;;;;13.48;2.33;;;20.60;61.80;;;;;;5027836;28;20483;-65
2022/04/16 16:09:18;;;;;;;8.98;1.90;;;20.40;62.40;;;;;;5029034;28;20048;-66
2022/04/16 16:12:23;;;;;;;6.55;2.20;;;20.40;61.50;;;;;;5026505;28;20393;-65
2022/04/16 16:15:27;;;;;;;6.53;1.95;;;20.40;61.80;;;;;;5024906;28;20048;-65
2022/04/16 16:18:32;;;;;;;4.60;1.70;;;20.20;61.90;;;;;;5025002;28;20060;-64
2022/04/16 16:21:36;;;;;;;5.35;1.85;;;20.20;62.60;;;;;;5030440;28;20646;-65